This is the latest recevied weather packets stored in our database for station/object DG4DAZ-6. If no packets are shown the sender has not sent any weather packets the latest 10 day(s).
| Time | Temp. | Humidity | Pressure | Rain* | Wind** | Luminosity | Snow |
|---|---|---|---|---|---|---|---|
| 1777821682 | 17.78° C | 63% | 1010.1 hPa | 0 mm | - | 223 W/m² | - |
| 1777821084 | 17.22° C | 64% | 1010.1 hPa | 0 mm | - | 230 W/m² | - |
| 1777820483 | 17.22° C | 65% | 1010.2 hPa | 0 mm | - | 200 W/m² | - |
| 1777819884 | 17.22° C | 64% | 1010.3 hPa | 0 mm | - | 173 W/m² | - |
| 1777819284 | 17.78° C | 63% | 1010.3 hPa | 0 mm | - | 233 W/m² | - |
| 1777818684 | 17.78° C | 63% | 1010.3 hPa | 0 mm | - | 239 W/m² | - |
| 1777818083 | 17.22° C | 64% | 1010.3 hPa | 0 mm | - | 349 W/m² | - |
| 1777817483 | 17.22° C | 63% | 1010.4 hPa | 0 mm | - | 195 W/m² | - |
| 1777816884 | 18.33° C | 60% | 1010.5 hPa | 0 mm | - | 176 W/m² | - |
| 1777816283 | 18.89° C | 56% | 1010.3 hPa | 0 mm | - | 174 W/m² | - |
| 1777815682 | 19.44° C | 54% | 1010.5 hPa | 0 mm | - | 284 W/m² | - |
| 1777815084 | 18.89° C | 52% | 1010.4 hPa | 0 mm | - | 406 W/m² | - |
| 1777814482 | 18.89° C | 52% | 1010.4 hPa | 0 mm | - | 206 W/m² | - |
| 1777813884 | 18.89° C | 52% | 1010.5 hPa | 0 mm | - | 232 W/m² | - |
| 1777813283 | 18.89° C | 52% | 1010.4 hPa | 0 mm | - | 298 W/m² | - |
| 1777812682 | 18.89° C | 51% | 1010.6 hPa | 0 mm | - | 285 W/m² | - |
| 1777812084 | 18.89° C | 49% | 1010.7 hPa | 0 mm | - | 180 W/m² | - |
| 1777811484 | 19.44° C | 46% | 1010.4 hPa | 0 mm | - | 194 W/m² | - |
| 1777810883 | 19.44° C | 47% | 1010.4 hPa | 0 mm | - | 284 W/m² | - |
| 1777810283 | 19.44° C | 47% | 1010.4 hPa | 0 mm | - | 300 W/m² | - |
| 1777809682 | 19.44° C | 44% | 1010.4 hPa | 0 mm | - | 370 W/m² | - |
| 1777809084 | 19.44° C | 43% | 1010.5 hPa | 0 mm | - | 291 W/m² | - |
| 1777808483 | 19.44° C | 45% | 1010.5 hPa | 0 mm | - | 394 W/m² | - |
| 1777807882 | 19.44° C | 44% | 1010.6 hPa | 0 mm | - | 359 W/m² | - |
| 1777807284 | 19.44° C | 43% | 1010.6 hPa | 0 mm | - | 357 W/m² | - |
* Rain latest hour (hover to see other rain measurements)
** Current wind speed in m/s (hover to see current wind gust speed)